createdAt,value
2017-02-05T00:00:08.089Z,7.26
2017-02-05T00:01:07.610Z,7.31
2017-02-05T00:02:07.101Z,7.26
2017-02-05T00:03:07.673Z,7.30
2017-02-05T00:04:07.199Z,7.35
2017-02-05T00:05:07.787Z,7.22
2017-02-05T00:06:07.369Z,7.15
2017-02-05T00:07:08.065Z,7.28
2017-02-05T00:08:07.734Z,7.25
2017-02-05T00:09:07.362Z,7.20
2017-02-05T00:10:08.131Z,7.23
2017-02-05T00:11:07.796Z,7.25
2017-02-05T00:12:07.340Z,7.25
2017-02-05T00:13:07.954Z,7.25
2017-02-05T00:14:07.571Z,7.24
2017-02-05T00:15:08.102Z,7.29
2017-02-05T00:16:07.599Z,7.31
2017-02-05T00:17:07.391Z,7.19
2017-02-05T00:18:08.157Z,7.18
2017-02-05T00:19:07.709Z,7.21
2017-02-05T00:20:07.346Z,7.22
2017-02-05T00:21:07.795Z,7.31
2017-02-05T00:22:07.436Z,7.30
2017-02-05T00:23:07.922Z,7.37
2017-02-05T00:24:07.727Z,7.28
2017-02-05T00:25:08.164Z,7.29
2017-02-05T00:26:07.668Z,7.32
2017-02-05T00:27:07.192Z,7.27
2017-02-05T00:28:07.985Z,7.15
2017-02-05T00:29:07.612Z,7.18
2017-02-05T00:30:07.132Z,7.22
2017-02-05T00:31:07.620Z,7.07
2017-02-05T00:32:08.032Z,7.19
2017-02-05T00:33:07.562Z,7.10
2017-02-05T00:34:07.160Z,7.14
2017-02-05T00:35:07.881Z,7.22
2017-02-05T00:36:07.467Z,7.21
2017-02-05T00:37:08.051Z,7.26
2017-02-05T00:38:07.564Z,7.25
2017-02-05T00:39:08.102Z,7.23
2017-02-05T00:40:07.631Z,7.15
2017-02-05T00:41:07.169Z,7.22
2017-02-05T00:42:07.691Z,7.23
2017-02-05T00:43:07.793Z,7.20
2017-02-05T00:44:07.311Z,7.00
2017-02-05T00:45:07.950Z,7.04
2017-02-05T00:46:07.518Z,7.20
2017-02-05T00:47:08.122Z,7.10
2017-02-05T00:48:07.924Z,7.19
2017-02-05T00:49:07.520Z,7.08
2017-02-05T00:50:08.103Z,7.17
2017-02-05T00:51:07.656Z,7.12
2017-02-05T00:52:07.262Z,7.16
2017-02-05T00:53:07.795Z,7.06
2017-02-05T00:54:07.444Z,7.14
2017-02-05T00:55:08.044Z,7.22
2017-02-05T00:56:07.570Z,7.20
2017-02-05T00:57:08.358Z,7.04
2017-02-05T00:58:08.007Z,7.00
2017-02-05T00:59:07.633Z,7.12
2017-02-05T01:00:07.095Z,7.21
2017-02-05T01:01:07.564Z,7.15
2017-02-05T01:02:07.880Z,7.17
2017-02-05T01:03:07.418Z,7.26
2017-02-05T01:04:07.936Z,7.23
2017-02-05T01:05:07.639Z,7.23
2017-02-05T01:06:07.169Z,7.22
2017-02-05T01:07:07.758Z,7.19
2017-02-05T01:08:07.350Z,7.12
2017-02-05T01:09:07.863Z,7.25
2017-02-05T01:10:07.410Z,7.17
2017-02-05T01:11:08.016Z,7.10
2017-02-05T01:12:07.854Z,7.17
2017-02-05T01:13:07.337Z,7.07
2017-02-05T01:14:08.787Z,7.17
2017-02-05T01:15:07.974Z,7.10
2017-02-05T01:16:07.574Z,6.98
2017-02-05T01:17:08.373Z,6.97
2017-02-05T01:18:07.925Z,7.00
2017-02-05T01:19:07.425Z,7.03
2017-02-05T01:20:17.920Z,7.10
2017-02-05T01:21:07.479Z,7.02
2017-02-05T01:22:08.031Z,6.99
2017-02-05T01:23:07.152Z,6.96
2017-02-05T01:24:07.767Z,7.03
2017-02-05T01:25:07.401Z,7.01
2017-02-05T01:26:07.938Z,7.00
2017-02-05T01:27:07.721Z,7.00
2017-02-05T01:28:07.281Z,7.01
2017-02-05T01:29:07.812Z,7.06
2017-02-05T01:30:07.560Z,6.99
2017-02-05T01:31:08.176Z,7.00
2017-02-05T01:32:07.801Z,7.03
2017-02-05T01:33:07.298Z,7.07
2017-02-05T01:34:07.864Z,6.98
2017-02-05T01:35:07.442Z,6.94
2017-02-05T01:36:08.288Z,6.86
2017-02-05T01:37:07.869Z,6.83
2017-02-05T01:38:07.528Z,6.90
2017-02-05T01:39:08.073Z,6.91
2017-02-05T01:40:07.696Z,6.83
2017-02-05T01:41:07.388Z,6.86
2017-02-05T01:42:07.929Z,6.76
2017-02-05T01:43:07.557Z,6.79
2017-02-05T01:44:08.104Z,6.83
2017-02-05T01:45:07.712Z,6.64
2017-02-05T01:46:07.190Z,6.53
2017-02-05T01:47:07.871Z,6.50
2017-02-05T01:48:07.418Z,6.61
2017-02-05T01:49:07.884Z,6.62
2017-02-05T01:50:07.951Z,6.61
2017-02-05T01:51:07.580Z,6.55
2017-02-05T01:52:08.062Z,6.52
2017-02-05T01:53:07.801Z,6.52
2017-02-05T01:54:07.453Z,6.53
2017-02-05T01:55:08.019Z,6.59
2017-02-05T01:56:07.625Z,6.58
2017-02-05T01:57:07.172Z,6.46
2017-02-05T01:58:07.732Z,6.58
2017-02-05T01:59:07.300Z,6.54
2017-02-05T02:00:07.839Z,6.54
2017-02-05T02:01:07.420Z,6.53
2017-02-05T02:02:08.276Z,6.48
2017-02-05T02:03:07.844Z,6.45
2017-02-05T02:04:07.473Z,6.51
2017-02-05T02:05:07.929Z,6.45
2017-02-05T02:06:07.706Z,6.43
2017-02-05T02:07:07.252Z,6.39
2017-02-05T02:08:07.840Z,6.30
2017-02-05T02:09:07.356Z,6.28
2017-02-05T02:10:07.923Z,6.31
2017-02-05T02:11:07.474Z,6.36
2017-02-05T02:12:08.290Z,6.32
2017-02-05T02:13:08.210Z,6.29
2017-02-05T02:14:07.800Z,6.36
2017-02-05T02:15:07.388Z,6.19
2017-02-05T02:16:07.896Z,6.16
2017-02-05T02:17:07.808Z,6.28
2017-02-05T02:18:07.342Z,6.17
2017-02-05T02:19:07.887Z,6.24
2017-02-05T02:20:07.416Z,6.23
2017-02-05T02:21:08.203Z,6.31
2017-02-05T02:22:07.850Z,6.32
2017-02-05T02:23:07.442Z,6.27
2017-02-05T02:24:08.010Z,6.26
2017-02-05T02:25:07.612Z,6.29
2017-02-05T02:26:07.172Z,6.23
2017-02-05T02:27:07.963Z,6.33
2017-02-05T02:28:07.507Z,6.33
2017-02-05T02:29:08.062Z,6.35
2017-02-05T02:30:07.604Z,6.32
2017-02-05T02:31:07.528Z,6.19
2017-02-05T02:32:08.120Z,6.23
2017-02-05T02:33:07.691Z,6.26
2017-02-05T02:34:07.277Z,6.24
2017-02-05T02:35:07.936Z,6.11
2017-02-05T02:36:07.397Z,6.15
2017-02-05T02:37:07.959Z,6.16
2017-02-05T02:38:07.546Z,6.21
2017-02-05T02:39:08.121Z,6.19
2017-02-05T02:40:07.697Z,6.21
2017-02-05T02:41:07.272Z,6.15
2017-02-05T02:42:07.744Z,6.13
2017-02-05T02:43:07.183Z,6.10
2017-02-05T02:44:07.688Z,6.11
2017-02-05T02:45:07.481Z,6.18
2017-02-05T02:46:08.034Z,6.12
2017-02-05T02:47:07.728Z,6.22
2017-02-05T02:48:07.217Z,6.22
2017-02-05T02:49:07.703Z,6.18
2017-02-05T02:50:07.281Z,6.21
2017-02-05T02:51:07.958Z,6.18
2017-02-05T02:52:07.441Z,6.23
2017-02-05T02:53:08.035Z,6.22
2017-02-05T02:54:07.638Z,6.11
2017-02-05T02:55:07.214Z,6.13
2017-02-05T02:56:07.830Z,6.20
2017-02-05T02:57:07.571Z,6.18
2017-02-05T02:58:08.098Z,6.13
2017-02-05T02:59:07.688Z,6.14
2017-02-05T03:00:07.235Z,6.23
2017-02-05T03:01:07.912Z,6.20
2017-02-05T03:02:07.594Z,6.14
2017-02-05T03:03:07.204Z,6.10
2017-02-05T03:04:08.018Z,6.15
2017-02-05T03:05:07.586Z,6.06
2017-02-05T03:06:08.154Z,6.14
2017-02-05T03:07:07.708Z,6.09
2017-02-05T03:08:07.442Z,5.99
2017-02-05T03:09:07.962Z,6.01
2017-02-05T03:10:07.511Z,5.93
2017-02-05T03:11:08.070Z,6.04
2017-02-05T03:12:07.574Z,6.10
2017-02-05T03:13:07.168Z,6.00
2017-02-05T03:14:07.770Z,5.97
2017-02-05T03:15:07.337Z,5.95
2017-02-05T03:16:07.889Z,6.04
2017-02-05T03:17:07.719Z,6.01
2017-02-05T03:18:07.444Z,6.07
2017-02-05T03:19:07.931Z,6.07
2017-02-05T03:20:07.597Z,6.02
2017-02-05T03:21:07.099Z,5.98
2017-02-05T03:22:07.825Z,5.96
2017-02-05T03:23:07.476Z,5.97
2017-02-05T03:24:08.054Z,5.92
2017-02-05T03:25:07.679Z,5.76
2017-02-05T03:26:07.278Z,5.90
2017-02-05T03:27:07.795Z,5.90
2017-02-05T03:28:07.381Z,5.87
2017-02-05T03:29:07.889Z,5.87
2017-02-05T03:30:07.445Z,5.93
2017-02-05T03:31:08.011Z,5.88
2017-02-05T03:32:07.561Z,5.87
2017-02-05T03:33:08.013Z,5.86
2017-02-05T03:34:07.529Z,6.00
2017-02-05T03:35:08.076Z,5.94
2017-02-05T03:36:07.845Z,5.95
2017-02-05T03:37:07.450Z,5.96
2017-02-05T03:38:07.956Z,5.96
2017-02-05T03:39:07.750Z,5.90
2017-02-05T03:40:07.410Z,5.88
2017-02-05T03:41:08.024Z,5.88
2017-02-05T03:42:07.582Z,5.84
2017-02-05T03:43:07.109Z,5.86
2017-02-05T03:44:08.579Z,5.70
2017-02-05T03:45:08.093Z,5.85
2017-02-05T03:46:07.706Z,5.82
2017-02-05T03:47:07.429Z,5.78
2017-02-05T03:48:08.116Z,5.68
2017-02-05T03:49:07.612Z,5.75
2017-02-05T03:50:07.171Z,5.74
2017-02-05T03:51:07.795Z,5.78
2017-02-05T03:52:07.344Z,5.70
2017-02-05T03:53:07.937Z,5.78
2017-02-05T03:54:07.530Z,5.64
2017-02-05T03:55:08.416Z,5.60
2017-02-05T03:56:08.363Z,5.60
2017-02-05T03:57:07.981Z,5.58
2017-02-05T03:58:07.557Z,5.59
2017-02-05T03:59:08.084Z,5.61
2017-02-05T04:00:07.608Z,5.62
2017-02-05T04:01:07.225Z,5.63
2017-02-05T04:02:07.864Z,5.65
2017-02-05T04:03:07.425Z,5.56
2017-02-05T04:04:07.972Z,5.60
2017-02-05T04:05:07.503Z,5.53
2017-02-05T04:06:08.052Z,5.54
2017-02-05T04:07:07.586Z,5.46
2017-02-05T04:08:08.258Z,5.45
2017-02-05T04:09:07.762Z,5.42
2017-02-05T04:10:07.454Z,5.35
2017-02-05T04:11:08.513Z,5.25
2017-02-05T04:12:08.046Z,5.31
2017-02-05T04:13:07.573Z,5.28
2017-02-05T04:14:08.130Z,5.13
2017-02-05T04:15:07.688Z,5.07
2017-02-05T04:16:07.330Z,5.14
2017-02-05T04:17:08.188Z,5.11
2017-02-05T04:18:17.650Z,5.10
2017-02-05T04:19:07.199Z,5.03
2017-02-05T04:20:07.736Z,5.06
2017-02-05T04:21:07.342Z,4.96
2017-02-05T04:22:08.033Z,4.86
2017-02-05T04:23:07.933Z,4.93
2017-02-05T04:24:07.440Z,4.95
2017-02-05T04:25:07.954Z,4.86
2017-02-05T04:26:07.665Z,4.96
2017-02-05T04:27:07.324Z,4.83
2017-02-05T04:28:07.935Z,4.79
2017-02-05T04:29:07.471Z,4.80
2017-02-05T04:30:07.676Z,4.78
2017-02-05T04:31:07.183Z,4.62
2017-02-05T04:32:07.700Z,4.69
2017-02-05T04:33:07.473Z,4.50
2017-02-05T04:34:08.033Z,4.61
2017-02-05T04:35:07.559Z,4.59
2017-02-05T04:36:08.014Z,4.59
2017-02-05T04:37:07.714Z,4.52
2017-02-05T04:38:07.445Z,4.55
2017-02-05T04:39:08.047Z,4.59
2017-02-05T04:40:07.601Z,4.45
2017-02-05T04:41:07.247Z,4.47
2017-02-05T04:42:07.820Z,4.52
2017-02-05T04:43:07.434Z,4.50
2017-02-05T04:44:08.084Z,4.46
2017-02-05T04:45:07.680Z,4.38
2017-02-05T04:46:07.432Z,4.24
2017-02-05T04:47:08.171Z,4.22
2017-02-05T04:48:07.739Z,4.10
2017-02-05T04:49:07.418Z,4.04
2017-02-05T04:50:08.144Z,4.14
2017-02-05T04:51:07.737Z,4.02
2017-02-05T04:52:07.403Z,3.92
2017-02-05T04:53:08.169Z,3.93
2017-02-05T04:54:07.644Z,3.79
2017-02-05T04:55:07.136Z,3.69
2017-02-05T04:56:07.653Z,3.84
2017-02-05T04:57:07.503Z,3.76
2017-02-05T04:58:08.129Z,3.64
2017-02-05T04:59:07.683Z,3.47
2017-02-05T05:00:07.319Z,3.46
2017-02-05T05:01:07.799Z,3.39
2017-02-05T05:02:07.350Z,3.64
2017-02-05T05:03:07.933Z,3.67
2017-02-05T05:04:07.510Z,3.46
2017-02-05T05:05:08.023Z,3.36
2017-02-05T05:06:07.513Z,3.44
2017-02-05T05:07:08.087Z,3.50
2017-02-05T05:08:07.639Z,3.56
2017-02-05T05:09:07.166Z,3.45
2017-02-05T05:10:07.759Z,3.65
2017-02-05T05:11:07.335Z,3.65
2017-02-05T05:12:07.874Z,3.62
2017-02-05T05:13:07.455Z,3.50
2017-02-05T05:14:08.040Z,3.62
2017-02-05T05:15:07.833Z,3.61
2017-02-05T05:16:07.315Z,3.56
2017-02-05T05:17:08.098Z,3.52
2017-02-05T05:18:07.602Z,3.46
2017-02-05T05:19:07.381Z,3.35
2017-02-05T05:20:08.032Z,3.42
2017-02-05T05:21:07.736Z,3.49
2017-02-05T05:22:08.166Z,3.30
2017-02-05T05:23:07.739Z,3.32
2017-02-05T05:24:07.280Z,3.29
2017-02-05T05:25:10.565Z,3.28
2017-02-05T05:26:07.678Z,3.29
2017-02-05T05:27:07.311Z,3.28
2017-02-05T05:28:07.857Z,3.32
2017-02-05T05:29:07.601Z,2.75
2017-02-05T05:30:07.170Z,2.79
2017-02-05T05:31:07.769Z,2.61
2017-02-05T05:32:07.306Z,2.73
2017-02-05T05:33:07.821Z,3.00
2017-02-05T05:34:07.367Z,2.82
2017-02-05T05:35:07.875Z,2.72
2017-02-05T05:36:07.411Z,2.80
2017-02-05T05:37:07.927Z,3.02
2017-02-05T05:38:07.495Z,3.08
2017-02-05T05:39:08.104Z,3.18
2017-02-05T05:40:08.044Z,2.87
2017-02-05T05:41:07.557Z,2.58
2017-02-05T05:42:08.413Z,2.74
2017-02-05T05:43:07.973Z,2.81
2017-02-05T05:44:07.494Z,2.81
2017-02-05T05:45:08.045Z,2.60
2017-02-05T05:46:07.672Z,2.53
2017-02-05T05:47:08.773Z,2.48
2017-02-05T05:48:07.404Z,2.55
2017-02-05T05:49:07.506Z,2.51
2017-02-05T05:50:08.153Z,2.19
2017-02-05T05:51:07.724Z,2.35
2017-02-05T05:52:07.323Z,2.49
2017-02-05T05:53:07.722Z,2.58
2017-02-05T05:54:07.218Z,2.70
2017-02-05T05:55:07.832Z,2.74
2017-02-05T05:56:07.641Z,2.92
2017-02-05T05:57:07.181Z,2.77
2017-02-05T05:58:07.725Z,2.71
2017-02-05T05:59:07.295Z,2.87
2017-02-05T06:00:08.275Z,2.87
2017-02-05T06:01:08.198Z,2.90
2017-02-05T06:02:07.800Z,2.83
2017-02-05T06:03:07.432Z,2.57
2017-02-05T06:04:08.181Z,2.57
2017-02-05T06:05:07.701Z,2.67
2017-02-05T06:06:07.269Z,2.65
2017-02-05T06:07:08.030Z,2.48
2017-02-05T06:08:07.528Z,2.43
2017-02-05T06:09:08.038Z,2.50
2017-02-05T06:10:07.518Z,2.55
2017-02-05T06:11:08.281Z,2.63
2017-02-05T06:12:07.868Z,2.71
2017-02-05T06:13:07.417Z,2.72
2017-02-05T06:14:08.092Z,2.56
2017-02-05T06:15:07.884Z,2.51
2017-02-05T06:16:07.480Z,2.62
2017-02-05T06:17:08.322Z,2.58
2017-02-05T06:18:07.970Z,2.63
2017-02-05T06:19:07.723Z,2.58
2017-02-05T06:20:07.367Z,2.46
2017-02-05T06:21:07.915Z,2.28
2017-02-05T06:22:07.473Z,2.53
2017-02-05T06:23:08.011Z,2.51
2017-02-05T06:24:07.532Z,2.35
2017-02-05T06:25:08.140Z,2.34
2017-02-05T06:26:07.634Z,2.48
2017-02-05T06:27:07.147Z,2.21
2017-02-05T06:28:07.692Z,2.22
2017-02-05T06:29:07.394Z,2.34
2017-02-05T06:30:07.872Z,2.47
2017-02-05T06:31:07.470Z,2.40
2017-02-05T06:32:07.995Z,2.48
2017-02-05T06:33:07.804Z,2.40
2017-02-05T06:34:07.309Z,2.27
2017-02-05T06:35:07.821Z,2.40
2017-02-05T06:36:07.605Z,2.38
2017-02-05T06:37:07.114Z,2.46
2017-02-05T06:38:07.697Z,2.34
2017-02-05T06:39:07.248Z,2.39
2017-02-05T06:40:07.992Z,2.33
2017-02-05T06:41:07.143Z,2.53
2017-02-05T06:42:07.922Z,2.56
2017-02-05T06:43:07.569Z,2.54
2017-02-05T06:44:08.161Z,2.45
2017-02-05T06:45:07.680Z,2.38
2017-02-05T06:46:07.171Z,2.27
2017-02-05T06:47:07.988Z,2.31
2017-02-05T06:48:07.527Z,2.33
2017-02-05T06:49:08.016Z,2.24
2017-02-05T06:50:07.693Z,2.07
2017-02-05T06:51:07.249Z,2.02
2017-02-05T06:52:07.827Z,2.30
2017-02-05T06:53:07.363Z,2.44
2017-02-05T06:54:08.145Z,2.28
2017-02-05T06:55:07.603Z,2.14
2017-02-05T06:56:07.442Z,1.90
2017-02-05T06:57:07.967Z,2.38
2017-02-05T06:58:07.590Z,2.40
2017-02-05T06:59:07.155Z,2.24
2017-02-05T07:00:07.684Z,2.29
2017-02-05T07:01:07.271Z,2.39
2017-02-05T07:02:07.849Z,2.38
2017-02-05T07:03:07.463Z,2.48
2017-02-05T07:04:08.011Z,2.54
2017-02-05T07:05:07.457Z,2.40
2017-02-05T07:06:07.682Z,2.40
2017-02-05T07:07:07.290Z,2.23
2017-02-05T07:08:07.719Z,2.05
2017-02-05T07:09:07.248Z,2.09
2017-02-05T07:10:07.700Z,2.10
2017-02-05T07:11:07.556Z,2.20
2017-02-05T07:12:08.136Z,2.52
2017-02-05T07:13:07.781Z,2.52
2017-02-05T07:14:07.337Z,2.60
2017-02-05T07:15:07.965Z,2.62
2017-02-05T07:16:07.691Z,2.71
2017-02-05T07:17:07.582Z,2.55
2017-02-05T07:18:17.087Z,2.57
2017-02-05T07:19:07.717Z,2.52
2017-02-05T07:20:07.307Z,2.46
2017-02-05T07:21:08.017Z,2.52
2017-02-05T07:22:07.518Z,2.51
2017-02-05T07:23:08.109Z,2.35
2017-02-05T07:24:07.676Z,2.58
2017-02-05T07:25:07.218Z,2.57
2017-02-05T07:26:07.781Z,2.40
2017-02-05T07:27:07.351Z,2.52
2017-02-05T07:28:07.978Z,2.45
2017-02-05T07:29:07.583Z,2.54
2017-02-05T07:30:07.450Z,2.61
2017-02-05T07:31:07.896Z,2.65
2017-02-05T07:32:07.545Z,2.79
2017-02-05T07:33:08.045Z,2.75
2017-02-05T07:34:07.716Z,2.86
2017-02-05T07:35:07.197Z,2.93
2017-02-05T07:36:07.800Z,2.83
2017-02-05T07:37:07.321Z,2.95
2017-02-05T07:38:08.302Z,3.03
2017-02-05T07:39:07.845Z,3.18
2017-02-05T07:40:07.352Z,3.17
2017-02-05T07:41:07.850Z,3.28
2017-02-05T07:42:07.568Z,3.26
2017-02-05T07:43:07.263Z,3.31
2017-02-05T07:44:08.098Z,3.22
2017-02-05T07:45:07.982Z,3.36
2017-02-05T07:46:07.466Z,3.22
2017-02-05T07:47:08.119Z,2.94
2017-02-05T07:48:07.640Z,3.15
2017-02-05T07:49:07.194Z,3.20
2017-02-05T07:50:07.788Z,3.28
2017-02-05T07:51:07.441Z,3.49
2017-02-05T07:52:08.088Z,3.40
2017-02-05T07:53:07.809Z,3.47
2017-02-05T07:54:07.849Z,3.39
2017-02-05T07:55:07.689Z,3.43
2017-02-05T07:56:07.268Z,3.60
2017-02-05T07:57:07.939Z,3.58
2017-02-05T07:58:07.405Z,3.57
2017-02-05T07:59:07.662Z,3.62
2017-02-05T08:00:07.213Z,3.74
2017-02-05T08:01:07.775Z,3.64
2017-02-05T08:02:07.277Z,3.80
2017-02-05T08:03:07.864Z,3.72
2017-02-05T08:04:07.624Z,3.77
2017-02-05T08:05:07.392Z,3.81
2017-02-05T08:06:08.042Z,3.82
2017-02-05T08:07:07.651Z,3.94
2017-02-05T08:08:07.259Z,3.94
2017-02-05T08:09:07.979Z,4.01
2017-02-05T08:10:07.638Z,3.99
2017-02-05T08:11:07.072Z,4.04
2017-02-05T08:12:07.770Z,3.99
2017-02-05T08:13:07.349Z,4.06
2017-02-05T08:14:07.929Z,4.00
2017-02-05T08:15:07.547Z,4.10
2017-02-05T08:16:08.349Z,4.02
2017-02-05T08:17:08.211Z,4.13
2017-02-05T08:18:07.833Z,4.34
2017-02-05T08:19:07.417Z,4.24
2017-02-05T08:20:08.382Z,4.32
2017-02-05T08:21:07.920Z,4.24
2017-02-05T08:22:07.544Z,4.42
2017-02-05T08:23:08.287Z,4.61
2017-02-05T08:24:07.855Z,4.58
2017-02-05T08:25:07.432Z,4.52
2017-02-05T08:26:08.295Z,4.52
2017-02-05T08:27:08.114Z,4.46
2017-02-05T08:28:07.693Z,4.46
2017-02-05T08:29:07.281Z,4.56
2017-02-05T08:30:08.265Z,4.60
2017-02-05T08:31:07.739Z,4.80
2017-02-05T08:32:09.475Z,4.68
2017-02-05T08:33:07.934Z,4.81
2017-02-05T08:34:07.555Z,4.78
2017-02-05T08:35:09.449Z,4.58
2017-02-05T08:36:10.245Z,4.69
2017-02-05T08:37:15.765Z,4.56
2017-02-05T08:38:08.151Z,4.77
2017-02-05T08:39:10.304Z,4.96
2017-02-05T08:40:08.635Z,4.91
2017-02-05T08:41:08.361Z,5.07
2017-02-05T08:42:08.057Z,5.02
2017-02-05T08:43:07.704Z,4.84
2017-02-05T08:44:07.347Z,4.99
2017-02-05T08:45:07.963Z,5.05
2017-02-05T08:46:07.602Z,5.01
2017-02-05T08:47:07.320Z,5.24
2017-02-05T08:48:17.820Z,5.21
2017-02-05T08:49:07.555Z,5.17
2017-02-05T08:50:08.103Z,5.26
2017-02-05T08:51:07.581Z,5.25
2017-02-05T08:52:07.113Z,5.19
2017-02-05T08:53:07.640Z,5.24
2017-02-05T08:54:07.334Z,5.25
2017-02-05T08:55:24.535Z,5.34
2017-02-05T08:56:07.724Z,5.38
2017-02-05T08:57:07.891Z,5.51
2017-02-05T08:58:07.589Z,5.50
2017-02-05T08:59:07.152Z,5.58
2017-02-05T09:00:07.717Z,5.55
2017-02-05T09:01:07.284Z,5.55
2017-02-05T09:02:07.448Z,5.70
2017-02-05T09:03:08.153Z,5.79
2017-02-05T09:04:08.956Z,5.87
2017-02-05T09:05:07.734Z,5.90
2017-02-05T09:06:07.387Z,6.05
2017-02-05T09:07:08.164Z,5.94
2017-02-05T09:08:28.441Z,5.95
2017-02-05T09:09:23.754Z,5.96
2017-02-05T09:10:15.664Z,5.87
2017-02-05T09:11:07.514Z,5.89
2017-02-05T09:12:08.055Z,6.04
2017-02-05T09:13:07.683Z,6.02
2017-02-05T09:14:07.127Z,6.15
2017-02-05T09:15:07.794Z,6.21
2017-02-05T09:16:07.373Z,6.28
2017-02-05T09:17:09.253Z,6.25
2017-02-05T09:18:17.692Z,6.30
2017-02-05T09:19:07.445Z,6.25
2017-02-05T09:20:08.005Z,6.24
2017-02-05T09:21:07.533Z,6.28
2017-02-05T09:22:08.055Z,6.37
2017-02-05T09:23:07.653Z,6.40
2017-02-05T09:24:07.113Z,6.44
2017-02-05T09:26:02.532Z,6.44
2017-02-05T09:26:07.887Z,6.41
2017-02-05T09:27:07.347Z,6.46
2017-02-05T09:28:07.913Z,6.46
2017-02-05T09:29:07.834Z,6.46
2017-02-05T09:30:08.404Z,6.43
2017-02-05T09:31:08.074Z,6.43
2017-02-05T09:32:07.424Z,6.43
2017-02-05T09:33:08.101Z,6.51
2017-02-05T09:34:07.598Z,6.45
2017-02-05T09:35:07.164Z,6.47
2017-02-05T09:36:08.225Z,6.53
2017-02-05T09:37:07.792Z,6.49
2017-02-05T09:38:07.381Z,6.51
2017-02-05T09:39:07.954Z,6.65
2017-02-05T09:40:07.531Z,6.58
2017-02-05T09:41:08.139Z,6.71
2017-02-05T09:42:07.833Z,6.82
2017-02-05T09:43:07.500Z,6.95
2017-02-05T09:44:08.293Z,6.93
2017-02-05T09:45:07.852Z,6.94
2017-02-05T09:46:07.352Z,7.14
2017-02-05T09:47:08.082Z,7.21
2017-02-05T09:48:08.524Z,7.26
2017-02-05T09:49:08.481Z,7.22
2017-02-05T09:50:08.946Z,7.25
2017-02-05T09:51:07.571Z,7.29
2017-02-05T09:52:08.304Z,7.40
2017-02-05T09:53:07.821Z,7.49
2017-02-05T09:54:07.441Z,7.48
2017-02-05T09:55:08.159Z,7.58
2017-02-05T09:56:07.747Z,7.49
2017-02-05T09:57:07.413Z,7.63
2017-02-05T09:58:07.992Z,7.73
2017-02-05T09:59:07.642Z,7.71
2017-02-05T10:00:07.339Z,7.65
2017-02-05T10:01:07.909Z,7.62
2017-02-05T10:02:07.740Z,7.67
2017-02-05T10:03:10.012Z,7.66
2017-02-05T10:04:07.794Z,7.51
2017-02-05T10:05:07.327Z,7.52
2017-02-05T10:06:07.945Z,7.53
2017-02-05T10:07:07.590Z,7.63
2017-02-05T10:08:07.253Z,7.73
2017-02-05T10:09:07.994Z,7.73
2017-02-05T10:10:07.460Z,7.74
2017-02-05T10:11:08.157Z,7.80
2017-02-05T10:12:07.901Z,7.83
2017-02-05T10:13:07.838Z,7.74
2017-02-05T10:14:07.328Z,7.65
2017-02-05T10:15:07.864Z,7.55
2017-02-05T10:16:07.443Z,7.56
2017-02-05T10:17:08.252Z,7.68
2017-02-05T10:18:07.793Z,7.62
2017-02-05T10:19:07.257Z,7.64
2017-02-05T10:20:07.766Z,7.67
2017-02-05T10:21:07.296Z,7.57
2017-02-05T10:22:07.836Z,7.59
2017-02-05T10:23:07.388Z,7.44
2017-02-05T10:24:08.827Z,7.51
2017-02-05T10:25:07.629Z,7.56
2017-02-05T10:26:07.127Z,7.60
2017-02-05T10:27:07.642Z,7.51
2017-02-05T10:28:07.288Z,7.56
2017-02-05T10:29:07.920Z,7.58
2017-02-05T10:30:07.403Z,7.61
2017-02-05T10:31:07.923Z,7.53
2017-02-05T10:32:07.463Z,7.60
2017-02-05T10:33:08.044Z,7.71
2017-02-05T10:34:07.568Z,7.70
2017-02-05T10:35:08.107Z,7.55
2017-02-05T10:36:07.587Z,7.59
2017-02-05T10:37:07.175Z,7.53
2017-02-05T10:38:07.711Z,7.59
2017-02-05T10:39:07.485Z,7.59
2017-02-05T10:40:07.962Z,7.59
2017-02-05T10:41:07.584Z,7.66
2017-02-05T10:42:07.367Z,7.70
2017-02-05T10:43:07.871Z,7.73
2017-02-05T10:44:07.223Z,7.76
2017-02-05T10:45:07.950Z,7.79
2017-02-05T10:46:07.460Z,7.84
2017-02-05T10:47:08.190Z,7.88
2017-02-05T10:48:07.743Z,7.98
2017-02-05T10:49:07.324Z,7.94
2017-02-05T10:50:07.890Z,7.95
2017-02-05T10:51:07.650Z,7.83
2017-02-05T10:52:07.191Z,7.72
2017-02-05T10:53:07.750Z,7.71
2017-02-05T10:54:07.420Z,7.77
2017-02-05T10:55:07.907Z,7.78
2017-02-05T10:56:07.514Z,7.70
2017-02-05T10:57:08.076Z,7.79
2017-02-05T10:58:07.593Z,7.83
2017-02-05T10:59:07.115Z,7.84
2017-02-05T11:00:07.669Z,7.79
2017-02-05T11:01:07.307Z,7.70
2017-02-05T11:02:07.866Z,7.72
2017-02-05T11:03:07.433Z,7.71
2017-02-05T11:04:07.990Z,7.77
2017-02-05T11:05:07.829Z,7.83
2017-02-05T11:06:08.577Z,7.86
2017-02-05T11:07:08.128Z,7.96
2017-02-05T11:08:07.656Z,7.93
2017-02-05T11:09:07.202Z,7.90
2017-02-05T11:10:07.773Z,8.00
2017-02-05T11:11:07.317Z,7.88
2017-02-05T11:12:08.123Z,7.91
2017-02-05T11:13:07.760Z,7.82
2017-02-05T11:14:07.243Z,7.80
2017-02-05T11:15:07.727Z,7.75
2017-02-05T11:16:07.256Z,7.80
2017-02-05T11:17:08.037Z,7.80
2017-02-05T11:18:07.793Z,7.82
2017-02-05T11:19:07.284Z,7.70
2017-02-05T11:20:07.976Z,7.74
2017-02-05T11:21:07.491Z,7.73
2017-02-05T11:22:08.007Z,7.66
2017-02-05T11:23:07.643Z,7.74
2017-02-05T11:24:07.223Z,7.74
2017-02-05T11:25:07.911Z,7.79
2017-02-05T11:26:07.469Z,7.90
2017-02-05T11:27:07.960Z,7.96
2017-02-05T11:28:07.617Z,7.96
2017-02-05T11:29:07.157Z,8.04
2017-02-05T11:30:07.689Z,7.96
2017-02-05T11:31:07.256Z,7.97
2017-02-05T11:32:07.760Z,7.98
2017-02-05T11:33:07.259Z,7.99
2017-02-05T11:34:07.829Z,8.03
2017-02-05T11:35:07.450Z,7.97
2017-02-05T11:36:08.052Z,8.07
2017-02-05T11:37:07.578Z,8.12
2017-02-05T11:38:08.180Z,8.22
2017-02-05T11:39:07.701Z,8.15
2017-02-05T11:40:07.205Z,8.18
2017-02-05T11:41:07.723Z,8.10
2017-02-05T11:42:07.325Z,8.15
2017-02-05T11:43:07.511Z,8.27
2017-02-05T11:44:08.130Z,8.29
2017-02-05T11:45:07.609Z,8.28
2017-02-05T11:46:07.131Z,8.33
2017-02-05T11:47:07.585Z,8.19
2017-02-05T11:48:17.079Z,8.28
2017-02-05T11:49:07.578Z,8.27
2017-02-05T11:50:07.224Z,8.16
2017-02-05T11:51:08.695Z,8.27
2017-02-05T11:52:07.186Z,8.23
2017-02-05T11:53:07.705Z,8.25
2017-02-05T11:54:07.444Z,8.18
2017-02-05T11:55:08.141Z,8.21
2017-02-05T11:56:07.624Z,8.25
2017-02-05T11:57:07.239Z,8.23
2017-02-05T11:58:07.780Z,8.31
2017-02-05T11:59:07.302Z,8.27
2017-02-05T12:00:07.852Z,8.38
2017-02-05T12:01:07.453Z,8.38
2017-02-05T12:02:07.972Z,8.41
2017-02-05T12:03:07.559Z,8.36
2017-02-05T12:04:08.110Z,8.44
2017-02-05T12:05:07.954Z,8.44
2017-02-05T12:06:07.583Z,8.47
2017-02-05T12:07:08.122Z,8.50
2017-02-05T12:08:07.895Z,8.42
2017-02-05T12:09:07.394Z,8.44
2017-02-05T12:10:08.015Z,8.53
2017-02-05T12:11:07.818Z,8.56
2017-02-05T12:12:07.314Z,8.39
2017-02-05T12:13:07.885Z,8.48
2017-02-05T12:14:07.450Z,8.50
2017-02-05T12:15:07.954Z,8.50
2017-02-05T12:16:07.554Z,8.44
2017-02-05T12:17:08.296Z,8.49
2017-02-05T12:18:07.894Z,8.31
2017-02-05T12:19:07.470Z,8.34
2017-02-05T12:20:08.113Z,8.29
2017-02-05T12:21:07.597Z,8.26
2017-02-05T12:22:08.088Z,8.31
2017-02-05T12:23:07.866Z,8.39
2017-02-05T12:24:07.408Z,8.37
2017-02-05T12:25:07.998Z,8.33
2017-02-05T12:26:07.825Z,8.35
2017-02-05T12:27:07.331Z,8.36
2017-02-05T12:28:07.991Z,8.35
2017-02-05T12:29:07.768Z,8.46
2017-02-05T12:30:07.297Z,8.34
2017-02-05T12:31:07.897Z,8.36
2017-02-05T12:32:07.561Z,8.34
2017-02-05T12:33:08.065Z,8.42
2017-02-05T12:34:07.828Z,8.37
2017-02-05T12:35:07.360Z,8.40
2017-02-05T12:36:08.265Z,8.31
2017-02-05T12:37:07.860Z,8.50
2017-02-05T12:38:07.399Z,8.65
2017-02-05T12:39:07.899Z,8.74
2017-02-05T12:40:07.439Z,8.77
2017-02-05T12:41:08.038Z,8.61
2017-02-05T12:42:07.610Z,8.72
2017-02-05T12:43:07.174Z,8.81
2017-02-05T12:44:07.751Z,8.80
2017-02-05T12:45:07.237Z,8.78
2017-02-05T12:46:07.895Z,8.85
2017-02-05T12:47:07.592Z,8.85
2017-02-05T12:48:07.145Z,8.88
2017-02-05T12:49:07.643Z,8.87
2017-02-05T12:50:07.432Z,8.79
2017-02-05T12:51:08.137Z,8.92
2017-02-05T12:52:07.687Z,9.09
2017-02-05T12:53:07.267Z,9.09
2017-02-05T12:54:07.980Z,9.09
2017-02-05T12:55:07.487Z,9.24
2017-02-05T12:56:08.013Z,9.18
2017-02-05T12:57:07.761Z,9.30
2017-02-05T12:58:07.459Z,9.28
2017-02-05T12:59:08.134Z,9.38
2017-02-05T13:00:07.823Z,9.35
2017-02-05T13:01:07.323Z,9.33
2017-02-05T13:02:07.877Z,9.35
2017-02-05T13:03:07.157Z,9.37
2017-02-05T13:04:07.856Z,9.36
2017-02-05T13:05:07.438Z,9.35
2017-02-05T13:06:08.031Z,9.58
2017-02-05T13:07:07.639Z,9.61
2017-02-05T13:08:07.185Z,9.58
2017-02-05T13:09:07.750Z,9.53
2017-02-05T13:10:07.383Z,9.51
2017-02-05T13:11:07.908Z,9.45
2017-02-05T13:12:07.444Z,9.43
2017-02-05T13:13:08.260Z,9.32
2017-02-05T13:14:07.843Z,9.29
2017-02-05T13:15:07.430Z,9.26
2017-02-05T13:16:07.959Z,9.30
2017-02-05T13:17:08.529Z,9.21
2017-02-05T13:18:08.073Z,9.21